createdAt,value
2023-12-23T00:01:02.061Z,5.31
2023-12-23T00:03:28.654Z,5.31
2023-12-23T00:05:55.429Z,5.30
2023-12-23T00:08:21.941Z,5.29
2023-12-23T00:10:48.780Z,5.29
2023-12-23T00:13:15.261Z,5.29
2023-12-23T00:15:42.061Z,5.27
2023-12-23T00:18:09.026Z,5.27
2023-12-23T00:20:37.033Z,5.27
2023-12-23T00:23:03.669Z,5.26
2023-12-23T00:25:30.491Z,5.26
2023-12-23T00:27:57.019Z,5.26
2023-12-23T00:30:23.812Z,5.24
2023-12-23T00:32:52.120Z,5.26
2023-12-23T00:35:18.819Z,5.27
2023-12-23T00:37:45.300Z,5.28
2023-12-23T00:40:11.937Z,5.28
2023-12-23T00:42:38.832Z,5.28
2023-12-23T00:45:06.193Z,5.28
2023-12-23T00:47:35.516Z,5.27
2023-12-23T00:50:04.252Z,5.25
2023-12-23T00:52:32.620Z,5.24
2023-12-23T00:54:59.200Z,5.24
2023-12-23T00:57:26.080Z,5.25
2023-12-23T00:59:52.836Z,5.23
2023-12-23T01:02:19.846Z,5.27
2023-12-23T01:04:46.344Z,5.27
2023-12-23T01:07:13.189Z,5.28
2023-12-23T01:09:39.645Z,5.28
2023-12-23T01:12:07.044Z,5.24
2023-12-23T01:14:33.743Z,5.24
2023-12-23T01:17:00.568Z,5.22
2023-12-23T01:19:27.060Z,5.23
2023-12-23T01:21:53.808Z,5.21
2023-12-23T01:24:20.627Z,5.17
2023-12-23T01:26:47.412Z,5.17
2023-12-23T01:29:13.857Z,5.15
2023-12-23T01:31:40.742Z,5.14
2023-12-23T01:34:07.201Z,5.13
2023-12-23T01:36:34.198Z,5.13
2023-12-23T01:39:00.770Z,5.10
2023-12-23T01:41:27.490Z,5.09
2023-12-23T01:43:54.041Z,5.09
2023-12-23T01:46:20.774Z,5.10
2023-12-23T01:48:47.539Z,5.07
2023-12-23T01:51:15.547Z,5.07
2023-12-23T01:53:43.301Z,5.05
2023-12-23T01:56:10.214Z,5.05
2023-12-23T01:58:37.146Z,5.02
2023-12-23T02:01:04.562Z,5.03
2023-12-23T02:03:32.862Z,5.02
2023-12-23T02:06:00.540Z,5.03
2023-12-23T02:08:27.166Z,5.01
2023-12-23T02:11:05.931Z,5.00
2023-12-23T02:13:41.816Z,5.02
2023-12-23T02:16:09.887Z,5.01
2023-12-23T02:18:36.507Z,5.00
2023-12-23T02:21:03.328Z,5.01
2023-12-23T02:23:29.887Z,4.99
2023-12-23T02:26:02.085Z,4.99
2023-12-23T02:28:28.681Z,5.00
2023-12-23T02:30:57.097Z,4.98
2023-12-23T02:33:23.884Z,4.97
2023-12-23T02:35:54.428Z,4.95
2023-12-23T02:38:24.338Z,4.94
2023-12-23T02:40:50.980Z,4.94
2023-12-23T02:43:17.966Z,4.93
2023-12-23T02:45:44.451Z,4.94
2023-12-23T02:48:11.304Z,4.93
2023-12-23T02:50:37.775Z,4.92
2023-12-23T02:53:05.089Z,4.92
2023-12-23T02:55:33.195Z,4.92
2023-12-23T02:57:59.888Z,4.94
2023-12-23T03:00:26.312Z,4.94
2023-12-23T03:02:53.315Z,4.93
2023-12-23T03:05:20.004Z,4.91
2023-12-23T03:07:49.274Z,4.92
2023-12-23T03:10:16.160Z,4.90
2023-12-23T03:12:42.596Z,4.90
2023-12-23T03:15:09.519Z,4.90
2023-12-23T03:17:36.271Z,4.89
2023-12-23T03:20:02.816Z,4.86
2023-12-23T03:22:29.659Z,4.88
2023-12-23T03:24:56.096Z,4.85
2023-12-23T03:27:22.885Z,4.86
2023-12-23T03:29:49.322Z,4.84
2023-12-23T03:32:16.158Z,4.83
2023-12-23T03:34:42.774Z,4.83
2023-12-23T03:37:10.006Z,4.82
2023-12-23T03:39:36.597Z,4.83
2023-12-23T03:42:03.585Z,4.83
2023-12-23T03:44:30.040Z,4.83
2023-12-23T03:46:57.720Z,4.82
2023-12-23T03:49:24.232Z,4.81
2023-12-23T03:51:50.945Z,4.81
2023-12-23T03:54:17.416Z,4.80
2023-12-23T03:56:43.848Z,4.78
2023-12-23T03:59:10.652Z,4.76
2023-12-23T04:01:37.247Z,4.76
2023-12-23T04:04:04.681Z,4.75
2023-12-23T04:06:31.191Z,4.73
2023-12-23T04:08:57.972Z,4.71
2023-12-23T04:11:24.442Z,4.71
2023-12-23T04:13:51.189Z,4.71
2023-12-23T04:16:17.736Z,4.69
2023-12-23T04:18:44.608Z,4.71
2023-12-23T04:21:12.052Z,4.70
2023-12-23T04:23:38.554Z,4.69
2023-12-23T04:26:05.726Z,4.69
2023-12-23T04:28:32.457Z,4.71
2023-12-23T04:30:59.562Z,4.70
2023-12-23T04:33:26.565Z,4.70
2023-12-23T04:35:53.617Z,4.70
2023-12-23T04:38:20.523Z,4.70
2023-12-23T04:40:47.139Z,4.69
2023-12-23T04:43:13.975Z,4.71
2023-12-23T04:45:40.630Z,4.69
2023-12-23T04:48:07.740Z,4.69
2023-12-23T04:50:34.276Z,4.68
2023-12-23T04:53:01.120Z,4.67
2023-12-23T04:55:27.617Z,4.66
2023-12-23T04:57:54.444Z,4.66
2023-12-23T05:00:21.028Z,4.65
2023-12-23T05:02:48.084Z,4.65
2023-12-23T05:05:15.009Z,4.64
2023-12-23T05:07:41.896Z,4.64
2023-12-23T05:10:08.748Z,4.65
2023-12-23T05:12:36.027Z,4.64
2023-12-23T05:15:02.848Z,4.65
2023-12-23T05:17:29.434Z,4.63
2023-12-23T05:19:57.945Z,4.62
2023-12-23T05:22:24.502Z,4.62
2023-12-23T05:24:51.132Z,4.64
2023-12-23T05:27:17.610Z,4.64
2023-12-23T05:29:44.098Z,4.63
2023-12-23T05:32:10.669Z,4.63
2023-12-23T05:34:38.614Z,4.63
2023-12-23T05:37:05.146Z,4.62
2023-12-23T05:39:31.873Z,4.63
2023-12-23T05:41:59.449Z,4.63
2023-12-23T05:44:25.968Z,4.61
2023-12-23T05:46:52.487Z,4.62
2023-12-23T05:49:21.761Z,4.61
2023-12-23T05:51:50.136Z,4.59
2023-12-23T05:54:16.673Z,4.58
2023-12-23T05:56:43.172Z,4.58
2023-12-23T05:59:10.062Z,4.57
2023-12-23T06:01:36.521Z,4.57
2023-12-23T06:04:03.258Z,4.54
2023-12-23T06:06:29.849Z,4.53
2023-12-23T06:08:56.635Z,4.53
2023-12-23T06:11:23.192Z,4.53
2023-12-23T06:13:49.734Z,4.53
2023-12-23T06:16:16.344Z,4.53
2023-12-23T06:18:42.868Z,4.53
2023-12-23T06:21:09.925Z,4.52
2023-12-23T06:23:36.521Z,4.53
2023-12-23T06:26:03.124Z,4.50
2023-12-23T06:29:05.798Z,4.51
2023-12-23T06:31:33.533Z,4.50
2023-12-23T06:34:00.462Z,4.51
2023-12-23T06:36:27.035Z,4.50
2023-12-23T06:38:55.341Z,4.51
2023-12-23T06:41:22.579Z,4.52
2023-12-23T06:43:52.700Z,4.49
2023-12-23T06:47:04.859Z,4.56
2023-12-23T06:49:34.434Z,4.54
2023-12-23T06:52:01.346Z,4.55
2023-12-23T06:54:27.901Z,4.55
2023-12-23T06:56:54.694Z,4.55
2023-12-23T06:59:28.101Z,4.55
2023-12-23T07:02:05.317Z,4.55
2023-12-23T07:04:34.785Z,4.53
2023-12-23T07:07:33.744Z,4.53
2023-12-23T07:10:04.976Z,4.52
2023-12-23T07:12:36.562Z,4.54
2023-12-23T07:15:07.865Z,4.53
2023-12-23T07:17:40.952Z,4.56
2023-12-23T07:20:10.986Z,4.57
2023-12-23T07:22:37.512Z,4.56
2023-12-23T07:25:04.848Z,4.55
2023-12-23T07:27:31.934Z,4.55
2023-12-23T07:29:58.436Z,4.57
2023-12-23T07:32:26.082Z,4.58
2023-12-23T07:34:52.777Z,4.58
2023-12-23T07:37:19.289Z,4.61
2023-12-23T07:39:45.767Z,4.63
2023-12-23T07:42:14.140Z,4.61
2023-12-23T07:44:40.709Z,4.61
2023-12-23T07:47:07.722Z,4.63
2023-12-23T07:49:36.736Z,4.65
2023-12-23T07:52:05.392Z,4.67
2023-12-23T07:54:31.848Z,4.68
2023-12-23T07:56:58.779Z,4.68
2023-12-23T07:59:25.337Z,4.67
2023-12-23T08:01:52.004Z,4.65
2023-12-23T08:04:18.562Z,4.66
2023-12-23T08:06:45.302Z,4.66
2023-12-23T08:09:11.802Z,4.65
2023-12-23T08:11:38.313Z,4.65
2023-12-23T08:14:05.097Z,4.68
2023-12-23T08:16:31.935Z,4.68
2023-12-23T08:18:58.424Z,4.70
2023-12-23T08:21:25.246Z,4.71
2023-12-23T08:23:51.693Z,4.73
2023-12-23T08:26:18.161Z,4.74
2023-12-23T08:28:46.766Z,4.78
2023-12-23T08:31:13.478Z,4.77
2023-12-23T08:33:40.912Z,4.80
2023-12-23T08:36:07.569Z,4.79
2023-12-23T08:38:34.364Z,4.82
2023-12-23T08:41:00.852Z,4.81
2023-12-23T08:43:27.564Z,4.85
2023-12-23T08:45:54.622Z,4.86
2023-12-23T08:48:21.637Z,4.85
2023-12-23T08:50:48.134Z,4.86
2023-12-23T08:53:15.829Z,4.86
2023-12-23T08:55:42.620Z,4.88
2023-12-23T08:58:09.518Z,4.89
2023-12-23T09:00:36.890Z,4.92
2023-12-23T09:03:04.768Z,4.93
2023-12-23T09:05:31.508Z,4.94
2023-12-23T09:07:58.847Z,4.95
2023-12-23T09:10:25.404Z,4.97
2023-12-23T09:12:52.149Z,4.99
2023-12-23T09:15:18.757Z,4.98
2023-12-23T09:17:45.633Z,5.00
2023-12-23T09:20:12.431Z,4.99
2023-12-23T09:22:39.046Z,4.97
2023-12-23T09:25:05.696Z,4.98
2023-12-23T09:27:32.582Z,4.98
2023-12-23T09:30:01.202Z,5.00
2023-12-23T09:32:27.907Z,4.97
2023-12-23T09:34:55.730Z,4.97
2023-12-23T09:37:22.413Z,4.98
2023-12-23T09:39:49.741Z,4.96
2023-12-23T09:42:17.214Z,4.95
2023-12-23T09:44:45.019Z,4.95
2023-12-23T09:47:11.641Z,4.97
2023-12-23T09:49:38.607Z,4.95
2023-12-23T09:52:05.652Z,4.96
2023-12-23T09:54:39.137Z,4.99
2023-12-23T09:57:06.064Z,5.03
2023-12-23T09:59:32.564Z,5.05
2023-12-23T10:01:59.048Z,5.07
2023-12-23T10:04:25.839Z,5.08
2023-12-23T10:06:53.473Z,5.07
2023-12-23T10:09:20.086Z,5.07
2023-12-23T10:11:46.582Z,5.08
2023-12-23T10:14:13.966Z,5.03
2023-12-23T10:16:45.260Z,5.08
2023-12-23T10:19:13.559Z,5.07
2023-12-23T10:21:43.263Z,5.06
2023-12-23T10:24:09.800Z,5.05
2023-12-23T10:26:36.594Z,5.04
2023-12-23T10:29:05.787Z,5.04
2023-12-23T10:31:34.991Z,5.06
2023-12-23T10:34:07.181Z,5.03
2023-12-23T10:36:34.438Z,5.01
2023-12-23T10:39:14.748Z,5.01
2023-12-23T10:41:49.644Z,5.03
2023-12-23T10:44:18.396Z,5.00
2023-12-23T10:46:47.290Z,5.01
2023-12-23T10:49:14.358Z,4.99
2023-12-23T10:51:41.229Z,4.96
2023-12-23T10:54:10.216Z,4.98
2023-12-23T10:56:37.409Z,4.94
2023-12-23T10:59:04.419Z,4.93
2023-12-23T11:01:33.583Z,4.90
2023-12-23T11:04:02.441Z,4.85
2023-12-23T11:06:35.286Z,4.83
2023-12-23T11:09:03.127Z,4.80
2023-12-23T11:11:31.814Z,4.80
2023-12-23T11:13:58.758Z,4.80
2023-12-23T11:16:25.548Z,4.79
2023-12-23T11:18:55.512Z,4.78
2023-12-23T11:21:22.746Z,4.77
2023-12-23T11:23:49.772Z,4.76
2023-12-23T11:26:41.650Z,4.76
2023-12-23T11:29:09.678Z,4.76
2023-12-23T11:31:37.265Z,4.74
2023-12-23T11:34:17.020Z,4.73
2023-12-23T11:36:45.378Z,4.73
2023-12-23T11:39:13.316Z,4.74
2023-12-23T11:41:42.579Z,4.73
2023-12-23T11:44:11.810Z,4.74
2023-12-23T11:46:41.707Z,4.74
2023-12-23T11:49:10.170Z,4.72
2023-12-23T11:51:39.172Z,4.73
2023-12-23T11:54:05.729Z,4.73
2023-12-23T11:56:32.810Z,4.74
2023-12-23T11:59:02.824Z,4.71
2023-12-23T12:01:34.515Z,4.73
2023-12-23T12:04:01.314Z,4.72
2023-12-23T12:06:28.245Z,4.73
2023-12-23T12:08:56.398Z,4.73
2023-12-23T12:11:27.795Z,4.73
2023-12-23T12:14:00.545Z,4.74
2023-12-23T12:16:27.498Z,4.74
2023-12-23T12:18:54.291Z,4.72
2023-12-23T12:21:20.816Z,4.72
2023-12-23T12:23:47.646Z,4.73
2023-12-23T12:26:14.212Z,4.73
2023-12-23T12:28:43.086Z,4.73
2023-12-23T12:31:11.484Z,4.73
2023-12-23T12:33:41.208Z,4.75
2023-12-23T12:36:12.819Z,4.76
2023-12-23T12:38:39.670Z,4.77
2023-12-23T12:41:07.527Z,4.81
2023-12-23T12:43:36.031Z,4.84
2023-12-23T12:46:02.656Z,4.88
2023-12-23T12:48:29.630Z,4.91
2023-12-23T12:50:56.792Z,4.92
2023-12-23T12:53:23.420Z,4.92
2023-12-23T12:55:50.093Z,4.94
2023-12-23T12:58:17.589Z,4.97
2023-12-23T13:00:44.379Z,5.00
2023-12-23T13:03:11.084Z,5.02
2023-12-23T13:05:38.118Z,5.02
2023-12-23T13:08:05.090Z,5.02
2023-12-23T13:10:32.049Z,5.03
2023-12-23T13:12:58.535Z,5.04
2023-12-23T13:15:25.262Z,5.06
2023-12-23T13:17:52.936Z,5.09
2023-12-23T13:20:20.236Z,5.09
2023-12-23T13:22:48.828Z,5.10
2023-12-23T13:25:16.252Z,5.15
2023-12-23T13:27:42.714Z,5.17
2023-12-23T13:30:10.160Z,5.17
2023-12-23T13:32:36.904Z,5.16
2023-12-23T13:35:04.087Z,5.11
2023-12-23T13:37:30.652Z,5.09
2023-12-23T13:39:57.107Z,5.06
2023-12-23T13:42:23.740Z,5.03
2023-12-23T13:44:50.535Z,5.03
2023-12-23T13:47:17.129Z,5.02
2023-12-23T13:49:44.557Z,5.03
2023-12-23T13:52:11.243Z,5.03
2023-12-23T13:54:37.692Z,5.03
2023-12-23T13:57:04.753Z,5.03
2023-12-23T13:59:31.839Z,5.04
2023-12-23T14:01:58.679Z,5.02
2023-12-23T14:04:25.120Z,5.02
2023-12-23T14:06:51.920Z,5.04
2023-12-23T14:09:18.551Z,5.04
2023-12-23T14:11:45.485Z,5.06
2023-12-23T14:14:12.027Z,5.07
2023-12-23T14:16:38.909Z,5.10
2023-12-23T14:19:05.429Z,5.13
2023-12-23T14:21:33.034Z,5.14
2023-12-23T14:23:59.700Z,5.12
2023-12-23T14:26:28.988Z,5.11
2023-12-23T14:28:58.522Z,5.08
2023-12-23T14:31:25.692Z,5.05
2023-12-23T14:33:55.371Z,5.04
2023-12-23T14:36:22.241Z,5.03
2023-12-23T14:38:48.821Z,4.99
2023-12-23T14:41:15.800Z,4.96
2023-12-23T14:43:42.249Z,4.95
2023-12-23T14:46:10.362Z,4.93
2023-12-23T14:48:36.953Z,4.91
2023-12-23T14:51:04.049Z,4.90
2023-12-23T14:53:30.703Z,4.88
2023-12-23T14:55:57.671Z,4.86
2023-12-23T14:58:24.147Z,4.85
2023-12-23T15:00:50.678Z,4.83
2023-12-23T15:03:17.549Z,4.83
2023-12-23T15:05:44.198Z,4.79
2023-12-23T15:08:11.295Z,4.78
2023-12-23T15:10:37.735Z,4.76
2023-12-23T15:13:05.949Z,4.75
2023-12-23T15:15:33.521Z,4.74
2023-12-23T15:18:00.619Z,4.73
2023-12-23T15:20:27.188Z,4.72
2023-12-23T15:22:54.260Z,4.69
2023-12-23T15:25:20.954Z,4.69
2023-12-23T15:27:47.553Z,4.68
2023-12-23T15:30:14.666Z,4.66
2023-12-23T15:32:41.832Z,4.65
2023-12-23T15:35:08.858Z,4.65
2023-12-23T15:37:35.619Z,4.65
2023-12-23T15:40:02.091Z,4.66
2023-12-23T15:42:28.737Z,4.63
2023-12-23T15:44:55.530Z,4.61
2023-12-23T15:47:22.206Z,4.59
2023-12-23T15:49:48.753Z,4.56
2023-12-23T15:52:15.591Z,4.57
2023-12-23T15:54:42.166Z,4.57
2023-12-23T15:57:08.996Z,4.57
2023-12-23T15:59:35.660Z,4.58
2023-12-23T16:02:04.247Z,4.57
2023-12-23T16:04:31.346Z,4.56
2023-12-23T16:06:57.817Z,4.54
2023-12-23T16:09:24.632Z,4.54
2023-12-23T16:11:51.316Z,4.52
2023-12-23T16:14:18.174Z,4.50
2023-12-23T16:16:44.625Z,4.51
2023-12-23T16:19:15.463Z,4.49
2023-12-23T16:21:41.947Z,4.49
2023-12-23T16:24:08.671Z,4.48
2023-12-23T16:26:35.255Z,4.48
2023-12-23T16:29:02.101Z,4.47
2023-12-23T16:31:28.631Z,4.48
2023-12-23T16:33:55.608Z,4.47
2023-12-23T16:36:22.189Z,4.48
2023-12-23T16:38:49.008Z,4.49
2023-12-23T16:41:15.579Z,4.50
2023-12-23T16:43:42.449Z,4.47
2023-12-23T16:46:10.026Z,4.49
2023-12-23T16:48:36.614Z,4.49
2023-12-23T16:51:03.332Z,4.49
2023-12-23T16:53:30.820Z,4.48
2023-12-23T16:55:57.400Z,4.48
2023-12-23T16:58:24.542Z,4.47
2023-12-23T17:00:51.051Z,4.50
2023-12-23T17:03:18.309Z,4.50
2023-12-23T17:05:45.663Z,4.50
2023-12-23T17:08:12.467Z,4.49
2023-12-23T17:10:39.362Z,4.49
2023-12-23T17:13:05.944Z,4.49
2023-12-23T17:15:32.729Z,4.54
2023-12-23T17:18:00.806Z,4.51
2023-12-23T17:20:27.701Z,4.53
2023-12-23T17:22:55.767Z,4.50
2023-12-23T17:25:23.050Z,4.49
2023-12-23T17:27:52.261Z,4.51
2023-12-23T17:30:18.926Z,4.47
2023-12-23T17:32:45.658Z,4.49
2023-12-23T17:35:12.319Z,4.48
2023-12-23T17:37:38.774Z,4.46
2023-12-23T17:40:06.329Z,4.42
2023-12-23T17:42:32.767Z,4.43
2023-12-23T17:44:59.850Z,4.43
2023-12-23T17:47:26.686Z,4.42
2023-12-23T17:49:53.680Z,4.41
2023-12-23T17:52:21.084Z,4.43
2023-12-23T17:54:48.929Z,4.40
2023-12-23T17:57:16.473Z,4.39
2023-12-23T17:59:43.674Z,4.41
2023-12-23T18:02:10.555Z,4.39
2023-12-23T18:04:37.399Z,4.38
2023-12-23T18:07:04.152Z,4.37
2023-12-23T18:09:31.535Z,4.38
2023-12-23T18:11:57.987Z,4.39
2023-12-23T18:14:28.242Z,4.37
2023-12-23T18:16:55.282Z,4.40
2023-12-23T18:19:22.210Z,4.37
2023-12-23T18:21:48.734Z,4.35
2023-12-23T18:24:15.214Z,4.36
2023-12-23T18:26:42.929Z,4.36
2023-12-23T18:29:09.450Z,4.36
2023-12-23T18:31:36.230Z,4.38
2023-12-23T18:34:02.894Z,4.36
2023-12-23T18:36:29.438Z,4.35
2023-12-23T18:38:56.809Z,4.35
2023-12-23T18:41:23.722Z,4.37
2023-12-23T18:43:50.241Z,4.37
2023-12-23T18:46:16.991Z,4.41
2023-12-23T18:48:44.380Z,4.41
2023-12-23T18:51:11.514Z,4.41
2023-12-23T18:53:38.051Z,4.45
2023-12-23T18:56:04.785Z,4.46
2023-12-23T18:58:31.216Z,4.44
2023-12-23T19:00:58.708Z,4.46
2023-12-23T19:03:25.191Z,4.45
2023-12-23T19:05:52.093Z,4.43
2023-12-23T19:08:19.140Z,4.47
2023-12-23T19:10:47.286Z,4.48
2023-12-23T19:13:13.844Z,4.46
2023-12-23T19:15:40.720Z,4.53
2023-12-23T19:18:07.368Z,4.50
2023-12-23T19:20:34.553Z,4.49
2023-12-23T19:23:04.603Z,4.47
2023-12-23T19:25:31.507Z,4.57
2023-12-23T19:27:58.664Z,4.58
2023-12-23T19:30:25.246Z,4.53
2023-12-23T19:32:53.172Z,4.57
2023-12-23T19:35:19.942Z,4.55
2023-12-23T19:37:46.591Z,4.60
2023-12-23T19:40:13.266Z,4.58
2023-12-23T19:42:39.714Z,4.58
2023-12-23T19:45:06.958Z,4.57
2023-12-23T19:47:34.788Z,4.60
2023-12-23T19:50:01.516Z,4.61
2023-12-23T19:52:28.069Z,4.64
2023-12-23T19:54:54.746Z,4.64
2023-12-23T19:57:21.448Z,4.63
2023-12-23T19:59:48.005Z,4.59
2023-12-23T20:02:14.545Z,4.64
2023-12-23T20:04:41.008Z,4.62
2023-12-23T20:07:10.923Z,4.56
2023-12-23T20:09:40.425Z,4.58
2023-12-23T20:12:08.103Z,4.62
2023-12-23T20:14:35.899Z,4.66
2023-12-23T20:17:03.077Z,4.65
2023-12-23T20:19:29.669Z,4.62
2023-12-23T20:21:56.233Z,4.68
2023-12-23T20:24:23.439Z,4.63
2023-12-23T20:26:51.073Z,4.60
2023-12-23T20:29:17.777Z,4.60
2023-12-23T20:31:44.719Z,4.60
2023-12-23T20:34:11.606Z,4.58
2023-12-23T20:36:42.719Z,4.61
2023-12-23T20:39:09.506Z,4.57
2023-12-23T20:41:38.917Z,4.58
2023-12-23T20:44:08.059Z,4.60
2023-12-23T20:46:34.582Z,4.52
2023-12-23T20:49:01.498Z,4.54
2023-12-23T20:51:28.095Z,4.48
2023-12-23T20:53:54.900Z,4.46
2023-12-23T20:56:25.960Z,4.47
2023-12-23T20:58:56.331Z,4.46
2023-12-23T21:01:26.203Z,4.47
2023-12-23T21:03:55.107Z,4.43
2023-12-23T21:06:22.438Z,4.40
2023-12-23T21:08:49.587Z,4.42
2023-12-23T21:11:17.358Z,4.43
2023-12-23T21:13:44.906Z,4.39
2023-12-23T21:16:12.818Z,4.37
2023-12-23T21:18:44.087Z,4.34
2023-12-23T21:21:12.051Z,4.36
2023-12-23T21:23:38.579Z,4.35
2023-12-23T21:26:05.155Z,4.40
2023-12-23T21:28:32.017Z,4.38
2023-12-23T21:30:58.568Z,4.43
2023-12-23T21:33:25.401Z,4.42
2023-12-23T21:35:52.351Z,4.41
2023-12-23T21:38:21.583Z,4.41
2023-12-23T21:40:49.154Z,4.41
2023-12-23T21:43:15.830Z,4.44
2023-12-23T21:45:42.927Z,4.47
2023-12-23T21:48:09.893Z,4.52
2023-12-23T21:50:36.739Z,4.59
2023-12-23T21:53:05.020Z,4.59
2023-12-23T21:55:31.840Z,4.61
2023-12-23T21:57:58.302Z,4.60
2023-12-23T22:00:25.099Z,4.64
2023-12-23T22:02:51.969Z,4.65
2023-12-23T22:05:19.096Z,4.61
2023-12-23T22:07:45.587Z,4.63
2023-12-23T22:10:14.408Z,4.61
2023-12-23T22:12:41.044Z,4.61
2023-12-23T22:15:08.292Z,4.63
2023-12-23T22:17:35.094Z,4.64
2023-12-23T22:20:03.311Z,4.60
2023-12-23T22:22:30.154Z,4.62
2023-12-23T22:24:59.652Z,4.58
2023-12-23T22:27:26.149Z,4.59
2023-12-23T22:29:53.356Z,4.60
2023-12-23T22:32:19.834Z,4.61
2023-12-23T22:34:46.578Z,4.66
2023-12-23T22:37:13.113Z,4.63
2023-12-23T22:39:39.634Z,4.64
2023-12-23T22:42:06.339Z,4.63
2023-12-23T22:44:32.878Z,4.65
2023-12-23T22:46:59.674Z,4.67
2023-12-23T22:49:26.272Z,4.70
2023-12-23T22:51:53.083Z,4.71
2023-12-23T22:54:19.609Z,4.68
2023-12-23T22:56:46.426Z,4.67
2023-12-23T22:59:12.911Z,4.65
2023-12-23T23:01:39.649Z,4.64
2023-12-23T23:04:06.184Z,4.64
2023-12-23T23:06:33.285Z,4.61
2023-12-23T23:08:59.757Z,4.63
2023-12-23T23:11:26.335Z,4.64
2023-12-23T23:13:52.866Z,4.68
2023-12-23T23:16:20.990Z,4.72
2023-12-23T23:18:47.676Z,4.73
2023-12-23T23:21:14.854Z,4.81
2023-12-23T23:23:42.606Z,4.81
2023-12-23T23:26:09.491Z,4.81
2023-12-23T23:28:35.979Z,4.84
2023-12-23T23:31:02.755Z,4.82
2023-12-23T23:33:29.286Z,4.80
2023-12-23T23:35:56.183Z,4.83
2023-12-23T23:38:22.697Z,4.84
2023-12-23T23:40:52.065Z,4.90
2023-12-23T23:43:19.379Z,4.86
2023-12-23T23:45:46.225Z,4.81
2023-12-23T23:48:13.795Z,4.90
2023-12-23T23:50:40.759Z,4.90
2023-12-23T23:53:07.261Z,4.86
2023-12-23T23:55:33.773Z,4.84
2023-12-23T23:58:00.524Z,4.84
